Time;durP1;ratioP1;P1;durP2;ratioP2;P2;SDS_P1;SDS_P2;PMS_P1;PMS_P2;Temp;Humidity;BMP_temperature;BMP_pressure;BME280_temperature;BME280_humidity;BME280_pressure;Samples;Min_cycle;Max_cycle;Signal;HPM_P1;HPM_P2
2022/04/18 00:03:03;;;;;;;6.15;2.45;;;;;;;7.07;56.97;100825.56;20993186;28;20036;-72
2022/04/18 00:13:08;;;;;;;7.28;2.83;;;;;;;7.18;56.66;100818.66;21019840;28;20079;-72
2022/04/18 00:23:10;;;;;;;5.77;2.20;;;;;;;6.82;61.77;100819.34;21013775;28;20036;-72
2022/04/18 00:33:11;;;;;;;5.35;2.40;;;;;;;6.36;64.64;100811.19;21012855;28;20049;-72
2022/04/18 00:43:13;;;;;;;6.45;2.33;;;;;;;6.19;67.14;100797.22;21017929;28;20077;-72
2022/04/18 00:53:14;;;;;;;4.72;2.25;;;;;;;6.26;64.28;100771.25;21007181;28;20352;-72
2022/04/18 01:03:16;;;;;;;6.47;2.55;;;;;;;6.47;61.13;100774.88;21021483;28;20102;-72
2022/04/18 01:13:18;;;;;;;4.95;2.25;;;;;;;6.37;61.52;100769.63;21030314;28;20051;-72
2022/04/18 01:23:20;;;;;;;9.40;3.63;;;;;;;6.04;65.21;100764.16;21032116;28;20094;-72
2022/04/18 01:33:22;;;;;;;7.47;3.83;;;;;;;5.57;69.33;100751.56;21031087;28;20044;-73
2022/04/18 01:43:23;;;;;;;8.55;3.60;;;;;;;5.59;68.39;100755.03;21021399;28;20052;-73
2022/04/18 01:53:27;;;;;;;5.22;2.88;;;;;;;5.66;66.64;100741.25;21025740;28;20044;-73
2022/04/18 02:03:29;;;;;;;5.93;3.03;;;;;;;5.88;65.20;100744.91;21027719;28;20501;-73
2022/04/18 02:13:31;;;;;;;4.65;2.50;;;;;;;5.93;64.72;100740.66;21020140;28;20101;-72
2022/04/18 02:23:32;;;;;;;7.45;3.13;;;;;;;5.81;64.93;100743.13;21025514;28;20040;-72
2022/04/18 02:33:36;;;;;;;6.20;3.30;;;;;;;5.77;65.03;100739.63;21020105;28;20044;-72
2022/04/18 02:43:37;;;;;;;6.57;2.88;;;;;;;5.58;67.33;100727.31;21018362;28;20447;-72
2022/04/18 02:53:40;;;;;;;6.97;3.10;;;;;;;5.79;63.51;100714.50;21124023;22;20076;-66
2022/04/18 03:03:41;;;;;;;7.35;3.70;;;;;;;5.63;64.58;100707.44;21089339;28;20048;-66
2022/04/18 03:13:46;;;;;;;7.60;3.80;;;;;;;5.39;67.37;100711.53;21018715;28;20063;-65
2022/04/18 03:23:48;;;;;;;;;;;;;;;5.21;69.21;100706.16;21020123;28;20135;-65
2022/04/18 03:33:49;;;;;;;7.88;3.50;;;;;;;5.04;68.84;100712.91;21014118;28;19919;-65
2022/04/18 03:43:51;;;;;;;9.68;3.60;;;;;;;5.00;69.21;100698.13;21019860;28;20048;-64
2022/04/18 03:53:53;;;;;;;8.93;3.78;;;;;;;4.78;70.99;100678.84;21012934;28;20044;-64
2022/04/18 04:03:54;;;;;;;7.30;3.60;;;;;;;4.70;71.83;100691.72;21015587;28;20050;-65
2022/04/18 04:13:56;;;;;;;6.57;3.42;;;;;;;4.50;73.09;100687.97;21019946;28;20101;-65
2022/04/18 04:23:57;;;;;;;8.25;3.35;;;;;;;4.12;77.57;100693.50;21009118;28;20106;-65
2022/04/18 04:33:59;;;;;;;7.30;3.72;;;;;;;3.86;79.14;100687.91;21017834;28;20047;-64
2022/04/18 04:44:01;;;;;;;9.18;4.90;;;;;;;3.89;78.73;100687.09;21030179;28;20052;-64
2022/04/18 04:54:03;;;;;;;11.77;4.40;;;;;;;3.85;78.61;100681.84;21027351;28;20276;-65
2022/04/18 05:04:05;;;;;;;6.53;3.92;;;;;;;4.11;77.03;100684.84;21031803;28;20040;-65
2022/04/18 05:14:06;;;;;;;12.95;5.07;;;;;;;4.41;75.41;100683.56;21023335;28;20731;-65
2022/04/18 05:24:08;;;;;;;9.38;4.82;;;;;;;4.69;72.93;100689.97;21029046;28;20451;-65
2022/04/18 05:34:10;;;;;;;9.60;5.30;;;;;;;4.91;70.07;100687.66;21027083;28;20048;-65
2022/04/18 05:44:12;;;;;;;10.02;5.15;;;;;;;5.23;68.60;100693.22;21016482;28;20044;-65
2022/04/18 05:54:13;;;;;;;11.25;5.82;;;;;;;5.56;65.90;100692.69;21028734;28;20540;-65
2022/04/18 06:04:15;;;;;;;9.18;5.30;;;;;;;5.88;62.79;100699.00;21021106;28;20040;-65
2022/04/18 06:14:17;;;;;;;10.50;5.55;;;;;;;6.12;63.79;100689.69;21021201;28;20106;-64
2022/04/18 06:24:18;;;;;;;8.93;5.03;;;;;;;6.43;59.20;100688.16;21026961;28;20036;-65
2022/04/18 06:34:20;;;;;;;11.93;5.68;;;;;;;6.71;57.47;100691.78;21016189;28;20075;-66
2022/04/18 06:44:23;;;;;;;10.75;5.63;;;;;;;7.03;57.03;100693.63;21021783;28;20044;-64
2022/04/18 06:54:30;;;;;;;8.65;4.95;;;;;;;7.35;56.88;100676.34;21019958;28;20079;-64
2022/04/18 07:04:31;;;;;;;9.63;4.90;;;;;;;7.68;55.56;100666.84;21018558;28;20040;-64
2022/04/18 07:14:35;;;;;;;8.82;4.55;;;;;;;8.16;52.64;100670.28;21019436;28;20456;-64
2022/04/18 07:24:36;;;;;;;9.40;4.45;;;;;;;8.40;51.66;100665.06;21019284;28;20044;-64
2022/04/18 07:34:38;;;;;;;10.77;4.97;;;;;;;8.84;49.57;100661.41;21019903;28;20036;-64
2022/04/18 07:44:39;;;;;;;8.38;4.15;;;;;;;9.10;49.00;100660.41;21017945;28;20045;-64
2022/04/18 07:54:41;;;;;;;9.57;4.43;;;;;;;9.45;47.44;100665.44;21025919;28;20041;-64
2022/04/18 08:04:42;;;;;;;9.65;4.25;;;;;;;9.69;46.71;100667.00;21009820;28;20036;-64
2022/04/18 08:14:44;;;;;;;11.77;4.68;;;;;;;10.05;45.10;100664.94;21013016;28;20043;-64
2022/04/18 08:24:46;;;;;;;9.55;4.05;;;;;;;10.42;45.58;100663.72;21007789;28;20037;-64
2022/04/18 08:34:48;;;;;;;8.40;3.83;;;;;;;10.89;43.75;100661.44;21011027;28;20048;-64
2022/04/18 08:44:56;;;;;;;9.23;4.78;;;;;;;11.25;43.24;100657.44;20998406;28;20056;-66
2022/04/18 08:54:58;;;;;;;11.30;4.07;;;;;;;11.55;42.94;100646.50;21011788;28;20052;-66
2022/04/18 09:05:00;;;;;;;8.02;3.83;;;;;;;11.94;42.18;100641.50;21011718;28;20471;-65
2022/04/18 09:15:02;;;;;;;8.38;4.10;;;;;;;12.35;41.74;100636.38;21002393;28;20044;-66
2022/04/18 09:25:11;;;;;;;9.32;4.30;;;;;;;12.77;41.67;100639.91;21013924;28;20443;-66
2022/04/18 09:35:13;;;;;;;8.02;4.47;;;;;;;13.05;39.69;100617.41;21020816;28;20047;-66
2022/04/18 09:45:15;;;;;;;7.95;3.80;;;;;;;13.03;38.93;100615.69;21018741;28;20048;-66
2022/04/18 09:55:17;;;;;;;7.07;3.38;;;;;;;13.64;37.02;100601.13;21024319;28;20059;-66
2022/04/18 10:05:19;;;;;;;6.70;3.10;;;;;;;13.98;39.58;100601.13;21014118;28;20098;-66
2022/04/18 10:15:21;;;;;;;7.65;3.50;;;;;;;14.50;34.89;100585.69;21021938;28;20055;-67
2022/04/18 10:25:35;;;;;;;9.75;3.17;;;;;;;14.55;34.47;100579.38;21019913;28;20099;-67
2022/04/18 10:35:45;;;;;;;6.50;3.03;;;;;;;14.53;34.51;100562.75;21010480;28;20493;-66
2022/04/18 10:46:20;;;;;;;8.07;3.45;;;;;;;14.63;35.89;100551.03;21016618;28;20049;-66
2022/04/18 10:56:21;;;;;;;5.63;3.15;;;;;;;14.80;32.82;100539.09;21014607;28;20097;-64
2022/04/18 11:06:23;;;;;;;7.18;3.10;;;;;;;14.99;31.74;100532.34;21009554;28;20561;-65
2022/04/18 11:16:24;;;;;;;7.05;3.22;;;;;;;14.98;33.59;100529.75;21023284;28;20608;-65
2022/04/18 11:26:26;;;;;;;8.15;3.03;;;;;;;14.93;31.96;100527.25;21010682;28;20135;-65
2022/04/18 11:36:29;;;;;;;6.53;3.20;;;;;;;15.19;35.11;100501.81;21011560;28;20101;-68
2022/04/18 11:46:30;;;;;;;6.13;3.28;;;;;;;15.38;34.04;100487.13;21016631;28;20048;-68
2022/04/18 11:56:32;;;;;;;8.90;3.88;;;;;;;15.30;32.08;100483.88;21005417;28;20090;-68
2022/04/18 12:06:45;;;;;;;5.82;2.78;;;;;;;15.30;31.59;100465.41;21013003;28;20048;-67
2022/04/18 12:16:47;;;;;;;5.35;2.72;;;;;;;15.27;31.55;100463.72;21011048;28;20139;-68
2022/04/18 12:26:51;;;;;;;8.68;3.65;;;;;;;15.46;32.40;100442.00;21005981;28;20367;-68
2022/04/18 12:37:00;;;;;;;6.63;3.42;;;;;;;15.69;32.67;100428.00;21012928;28;20436;-68
2022/04/18 12:47:19;;;;;;;7.38;3.05;;;;;;;15.65;32.98;100417.56;21007132;28;20052;-68
2022/04/18 12:57:20;;;;;;;5.80;3.25;;;;;;;15.75;34.09;100407.50;21005992;28;20044;-68
2022/04/18 13:07:22;;;;;;;8.52;3.25;;;;;;;16.04;32.91;100390.56;21031184;28;20089;-65
2022/04/18 13:17:25;;;;;;;6.65;3.15;;;;;;;15.75;33.26;100382.91;21018925;28;20048;-65
2022/04/18 13:27:28;;;;;;;7.10;3.58;;;;;;;16.33;32.24;100368.31;21020752;28;20400;-65
2022/04/18 13:37:29;;;;;;;6.57;3.17;;;;;;;16.45;30.99;100348.47;21026148;28;20059;-65
2022/04/18 13:47:31;;;;;;;6.68;3.38;;;;;;;16.35;31.45;100339.19;21016894;28;20045;-65
2022/04/18 13:57:33;;;;;;;8.15;3.88;;;;;;;16.62;30.50;100332.78;21028172;28;20496;-66
2022/04/18 14:07:34;;;;;;;7.85;3.20;;;;;;;16.41;30.48;100323.94;21015718;28;20051;-66
2022/04/18 14:27:55;;;;;;;6.40;2.67;;;;;;;16.61;32.21;100294.03;21024964;28;20044;-66
2022/04/18 14:37:57;;;;;;;6.60;2.83;;;;;;;16.74;31.04;100290.91;21016382;28;21038;-66
2022/04/18 14:47:58;;;;;;;6.72;2.90;;;;;;;16.78;31.15;100280.13;20999976;28;20515;-66
2022/04/18 14:58:00;;;;;;;7.80;3.10;;;;;;;16.81;30.07;100281.78;20986800;28;20055;-65
2022/04/18 15:08:01;;;;;;;6.80;2.42;;;;;;;16.84;30.83;100257.84;20991800;28;20044;-66
2022/04/18 15:18:03;;;;;;;4.88;2.35;;;;;;;16.77;30.83;100249.34;20989164;28;20149;-66
2022/04/18 15:28:05;;;;;;;7.32;2.70;;;;;;;16.88;30.23;100243.56;20988016;28;20346;-65
2022/04/18 15:38:07;;;;;;;4.50;2.03;;;;;;;16.73;31.79;100244.25;20985635;28;20067;-66
2022/04/18 15:48:08;;;;;;;4.03;1.95;;;;;;;16.93;30.38;100242.44;20981019;28;20094;-66
2022/04/18 15:58:10;;;;;;;4.25;2.00;;;;;;;16.51;31.05;100234.56;20989232;28;20052;-66
2022/04/18 16:08:11;;;;;;;6.93;2.78;;;;;;;16.75;31.01;100237.09;20981776;28;20446;-66
2022/04/18 16:18:13;;;;;;;5.97;2.10;;;;;;;16.78;30.11;100231.69;20983780;28;20056;-65
2022/04/18 16:28:14;;;;;;;11.85;6.05;;;;;;;17.00;30.55;100221.00;20984438;28;20123;-65
2022/04/18 16:38:23;;;;;;;4.03;1.92;;;;;;;17.03;30.12;100221.72;20997330;28;20130;-66
2022/04/18 16:48:25;;;;;;;4.32;1.92;;;;;;;17.04;30.32;100215.50;21006385;28;20041;-66
2022/04/18 16:58:27;;;;;;;3.97;1.83;;;;;;;16.99;30.33;100212.19;21003669;28;20401;-66
2022/04/18 17:08:28;;;;;;;6.00;2.00;;;;;;;16.74;32.17;100203.66;20999263;28;20102;-66
2022/04/18 17:18:30;;;;;;;3.65;1.58;;;;;;;16.58;32.28;100199.03;21005428;28;20044;-66
2022/04/18 17:28:32;;;;;;;4.93;2.03;;;;;;;16.55;31.87;100195.66;20991010;28;20067;-66
2022/04/18 17:38:33;;;;;;;3.70;1.65;;;;;;;15.85;33.75;100194.19;20991766;28;20048;-66
2022/04/18 17:48:40;;;;;;;3.72;1.80;;;;;;;15.82;33.82;100189.03;20994112;28;20440;-65
2022/04/18 17:58:43;;;;;;;4.85;2.05;;;;;;;15.32;35.03;100186.56;20989135;28;20044;-66
2022/04/18 18:08:44;;;;;;;7.00;1.90;;;;;;;14.88;35.23;100191.75;20997409;28;20137;-66
2022/04/18 18:18:57;;;;;;;7.05;2.63;;;;;;;14.59;37.06;100212.09;20997817;28;20228;-67
2022/04/18 18:29:00;;;;;;;10.48;3.65;;;;;;;14.07;39.12;100223.53;20994268;28;20446;-66
2022/04/18 18:39:02;;;;;;;8.20;2.90;;;;;;;13.51;42.42;100226.16;20991330;28;20044;-66
2022/04/18 18:49:03;;;;;;;6.20;3.47;;;;;;;13.14;43.34;100240.41;20988023;28;20040;-66
2022/04/18 18:59:05;;;;;;;98.10;51.25;;;;;;;12.71;44.60;100246.84;20991368;28;20132;-67
2022/04/18 19:09:07;;;;;;;8.98;5.68;;;;;;;12.38;46.04;100269.59;20993493;28;20518;-65
2022/04/18 19:29:28;;;;;;;8.95;3.88;;;;;;;11.68;48.12;100263.34;20995330;28;20395;-66
2022/04/18 19:39:30;;;;;;;20.42;13.95;;;;;;;11.47;47.79;100268.19;20990424;28;20064;-66
2022/04/18 19:49:31;;;;;;;31.52;21.88;;;;;;;11.14;48.58;100269.75;20981252;28;20044;-66
2022/04/18 19:59:33;;;;;;;11.93;8.02;;;;;;;10.86;50.87;100265.94;21005178;28;20052;-67
2022/04/18 20:09:35;;;;;;;13.88;8.50;;;;;;;10.64;51.25;100263.72;21014059;28;20098;-67
2022/04/18 20:19:37;;;;;;;12.82;9.02;;;;;;;10.35;52.10;100277.34;21013234;28;20109;-66
2022/04/18 20:29:39;;;;;;;8.93;4.25;;;;;;;10.05;54.92;100272.53;21009834;28;20105;-67
2022/04/18 20:39:40;;;;;;;19.10;12.50;;;;;;;9.80;57.07;100262.47;21012889;28;20041;-67
2022/04/18 20:49:42;;;;;;;11.75;6.40;;;;;;;9.51;58.70;100268.09;21006311;28;20044;-65
2022/04/18 20:59:43;;;;;;;6.95;3.42;;;;;;;9.30;58.18;100269.25;21011224;28;20040;-66
2022/04/18 21:09:45;;;;;;;3.92;2.03;;;;;;;9.11;59.81;100262.53;21012482;28;20488;-65
2022/04/18 21:19:49;;;;;;;15.77;7.05;;;;;;;8.84;58.54;100264.56;21005333;28;20051;-65
2022/04/18 21:29:51;;;;;;;15.07;6.67;;;;;;;8.70;59.85;100258.63;21027422;28;20106;-66
2022/04/18 21:39:52;;;;;;;7.97;3.00;;;;;;;8.46;61.70;100260.59;21020601;28;20048;-66
2022/04/18 21:49:56;;;;;;;5.25;2.45;;;;;;;8.38;62.96;100251.09;21020711;28;20109;-66
2022/04/18 21:59:58;;;;;;;6.15;3.05;;;;;;;8.05;64.57;100249.59;21024651;28;20056;-66
2022/04/18 22:09:59;;;;;;;6.47;2.50;;;;;;;7.81;66.58;100248.03;21020594;28;20040;-66
2022/04/18 22:30:22;;;;;;;14.80;6.82;;;;;;;7.53;67.00;100236.94;21026628;28;20098;-66
2022/04/18 22:40:23;;;;;;;13.75;6.28;;;;;;;7.42;66.61;100224.81;21017986;28;20095;-66
2022/04/18 22:50:25;;;;;;;5.63;2.63;;;;;;;7.16;70.92;100216.31;21024073;28;20093;-66
2022/04/18 23:00:26;;;;;;;5.75;2.63;;;;;;;7.06;72.38;100215.47;21017626;28;20160;-65
2022/04/18 23:10:28;;;;;;;6.78;3.40;;;;;;;6.67;73.92;100212.16;21015595;28;20045;-65
2022/04/18 23:20:31;;;;;;;8.23;3.38;;;;;;;6.56;74.38;100198.28;21023554;28;20491;-65
2022/04/18 23:30:32;;;;;;;8.00;3.58;;;;;;;6.39;76.36;100198.34;21012349;28;20041;-66
2022/04/18 23:50:54;;;;;;;8.45;4.05;;;;;;;6.32;77.63;100175.81;21018904;28;20061;-66
